LYTV

Tivat Airport

Tivat, Montenegro
TAF LYTV 210500Z 2106/2206 VRB02KT 9999 FEW050 TX30/2113Z TN18/2203Z PROB40 TEMPO 2112/2116 5000 TSRA FEW027CB SCT033
Issued Valid From Valid To
Jun-21 @ 05:00 UTC
(5 hours ago)
Jun-21 @ 06:00 UTC
(4 hours ago)
Jun-22 @ 06:00 UTC
(in 20 hours)
Jun-21 @ 06:00 to Jun-22 @ 06:00
TAF LYTV 210500Z 2106/2206 VRB02KT 9999 FEW050 TX30/2113Z TN18/2203Z
Wind Visibility Clouds
Variable at 2 knots 10,000+ meters
  • Few at 5,000' AGL
Temporary  (Probability 40%) Jun-21 @ 12:00 to Jun-21 @ 16:00
PROB40 TEMPO 2112/2116 5000 TSRA FEW027CB SCT033
Visibility Clouds Conditions
5,005 meters
  • Few at 2,700' AGL
  • Scattered at 3,300' AGL
  • Thunderstorm
  • Rain
TAF LYTV 210500Z 2106/2206 VRB02KT 9999 FEW050 TX30/2113Z TN18/2203Z PROB40 TEMPO 2112/2116 5000 TSRA FEW027CB SCT033
Issued Jun-21 @ 05:00 UTC
(5 hours ago)
Valid From Jun-21 @ 06:00 UTC
(4 hours ago)
Valid To Jun-22 @ 06:00 UTC
(in 20 hours)
Jun-21 @ 06:00 - Jun-22 @ 06:00
Wind Visibility
Variable at 2 knots 10,000+ meters
Clouds
  • Few at 5,000' AGL
Probability 40% Temporary Jun-21 @ 12:00 - Jun-21 @ 16:00
Clouds
  • Few at 2,700' AGL
  • Scattered at 3,300' AGL
Conditions
  • Thunderstorm
  • Rain